createdAt,value
2022-12-12T00:01:47.157Z,-3.78
2022-12-12T00:04:13.851Z,-3.74
2022-12-12T00:06:40.582Z,-3.77
2022-12-12T00:09:07.259Z,-3.71
2022-12-12T00:11:34.036Z,-3.72
2022-12-12T00:14:00.675Z,-3.69
2022-12-12T00:16:27.712Z,-3.65
2022-12-12T00:18:54.722Z,-3.61
2022-12-12T00:21:24.880Z,-3.64
2022-12-12T00:23:52.172Z,-3.69
2022-12-12T00:26:22.494Z,-3.72
2022-12-12T00:28:49.573Z,-3.59
2022-12-12T00:31:16.764Z,-3.61
2022-12-12T00:33:45.056Z,-3.56
2022-12-12T00:36:11.745Z,-3.58
2022-12-12T00:38:38.325Z,-3.68
2022-12-12T00:41:06.236Z,-3.74
2022-12-12T00:43:32.871Z,-3.71
2022-12-12T00:46:00.279Z,-3.66
2022-12-12T00:48:27.505Z,-3.79
2022-12-12T00:50:54.749Z,-3.76
2022-12-12T00:53:23.130Z,-3.65
2022-12-12T00:55:57.854Z,-3.61
2022-12-12T00:58:25.731Z,-3.68
2022-12-12T01:00:53.234Z,-3.72
2022-12-12T01:03:20.852Z,-3.71
2022-12-12T01:05:47.696Z,-3.75
2022-12-12T01:08:14.414Z,-3.74
2022-12-12T01:10:41.671Z,-3.76
2022-12-12T01:13:08.317Z,-3.84
2022-12-12T01:15:34.908Z,-3.88
2022-12-12T01:18:01.497Z,-3.93
2022-12-12T01:20:28.657Z,-3.96
2022-12-12T01:22:55.317Z,-3.90
2022-12-12T01:25:22.388Z,-3.97
2022-12-12T01:27:49.061Z,-4.10
2022-12-12T01:30:18.650Z,-4.11
2022-12-12T01:32:45.521Z,-4.14
2022-12-12T01:35:12.560Z,-4.40
2022-12-12T01:37:40.796Z,-4.40
2022-12-12T01:40:18.843Z,-4.41
2022-12-12T01:42:45.605Z,-4.43
2022-12-12T01:45:49.531Z,-4.38
2022-12-12T01:48:16.197Z,-4.41
2022-12-12T01:50:44.178Z,-4.51
2022-12-12T01:53:13.199Z,-4.45
2022-12-12T01:55:39.859Z,-4.51
2022-12-12T01:58:06.478Z,-4.41
2022-12-12T02:00:33.528Z,-4.27
2022-12-12T02:03:00.685Z,-4.15
2022-12-12T02:05:33.448Z,-4.05
2022-12-12T02:08:02.070Z,-3.96
2022-12-12T02:10:29.168Z,-3.92
2022-12-12T02:13:19.060Z,-3.81
2022-12-12T02:15:59.900Z,-3.76
2022-12-12T02:18:50.194Z,-3.81
2022-12-12T02:21:48.240Z,-3.74
2022-12-12T02:25:01.620Z,-3.75
2022-12-12T02:28:01.569Z,-3.66
2022-12-12T02:31:07.521Z,-3.78
2022-12-12T02:33:58.276Z,-3.82
2022-12-12T02:36:57.492Z,-3.72
2022-12-12T02:39:36.799Z,-3.66
2022-12-12T02:42:09.188Z,-3.54
2022-12-12T02:44:37.570Z,-3.61
2022-12-12T02:47:36.242Z,-3.61
2022-12-12T02:50:09.537Z,-3.59
2022-12-12T02:52:36.869Z,-3.68
2022-12-12T02:55:04.867Z,-3.63
2022-12-12T02:57:31.517Z,-3.60
2022-12-12T03:00:02.568Z,-3.74
2022-12-12T03:03:25.801Z,-3.76
2022-12-12T03:43:20.213Z,-3.55
2022-12-12T03:45:57.687Z,-3.39
2022-12-12T03:48:29.420Z,-3.47
2022-12-12T03:51:01.005Z,-3.53
2022-12-12T03:53:41.824Z,-3.53
2022-12-12T03:56:27.089Z,-3.51
2022-12-12T03:59:01.422Z,-3.61
2022-12-12T04:01:36.751Z,-3.64
2022-12-12T04:04:26.894Z,-3.61
2022-12-12T04:07:00.950Z,-3.66
2022-12-12T04:09:46.956Z,-3.57
2022-12-12T04:13:00.914Z,-3.55
2022-12-12T04:15:53.578Z,-3.70
2022-12-12T04:18:52.952Z,-3.61
2022-12-12T04:21:54.575Z,-3.62
2022-12-12T04:24:44.816Z,-3.57
2022-12-12T04:27:34.585Z,-3.60
2022-12-12T04:30:10.720Z,-3.65
2022-12-12T04:32:45.244Z,-3.59
2022-12-12T04:35:20.313Z,-3.52
2022-12-12T04:38:08.286Z,-3.54
2022-12-12T04:40:39.296Z,-3.51
2022-12-12T04:43:27.648Z,-3.37
2022-12-12T04:46:01.972Z,-3.37
2022-12-12T04:48:38.603Z,-3.47
2022-12-12T04:51:10.157Z,-3.43
2022-12-12T04:53:42.368Z,-3.41
2022-12-12T04:56:13.447Z,-3.46
2022-12-12T04:58:40.756Z,-3.53
2022-12-12T05:01:16.045Z,-3.51
2022-12-12T05:03:58.398Z,-3.42
2022-12-12T05:06:37.759Z,-3.46
2022-12-12T05:09:04.516Z,-3.35
2022-12-12T05:11:31.112Z,-3.30
2022-12-12T05:13:57.680Z,-3.28
2022-12-12T05:16:32.517Z,-3.25
2022-12-12T05:19:00.347Z,-3.16
2022-12-12T05:21:27.067Z,-3.17
2022-12-12T05:23:53.867Z,-3.16
2022-12-12T05:26:25.984Z,-3.09
2022-12-12T05:28:52.972Z,-3.08
2022-12-12T05:31:19.737Z,-3.03
2022-12-12T05:33:46.764Z,-3.16
2022-12-12T05:36:14.374Z,-3.17
2022-12-12T05:38:41.880Z,-3.11
2022-12-12T05:41:09.082Z,-3.11
2022-12-12T05:43:36.066Z,-3.08
2022-12-12T05:46:02.821Z,-3.05
2022-12-12T05:48:29.472Z,-3.06
2022-12-12T05:50:56.156Z,-3.09
2022-12-12T05:53:23.204Z,-3.08
2022-12-12T05:55:54.030Z,-3.05
2022-12-12T05:58:20.603Z,-3.21
2022-12-12T06:00:49.020Z,-3.19
2022-12-12T06:03:16.544Z,-3.13
2022-12-12T06:05:43.253Z,-3.14
2022-12-12T06:08:09.989Z,-3.09
2022-12-12T06:10:36.840Z,-3.24
2022-12-12T06:13:03.861Z,-3.23
2022-12-12T06:15:30.516Z,-3.30
2022-12-12T06:17:58.535Z,-3.20
2022-12-12T06:20:25.380Z,-3.24
2022-12-12T06:22:53.703Z,-3.42
2022-12-12T06:25:21.020Z,-3.48
2022-12-12T06:27:47.798Z,-3.47
2022-12-12T06:30:14.924Z,-3.50
2022-12-12T06:32:42.006Z,-3.63
2022-12-12T06:35:09.481Z,-3.68
2022-12-12T06:37:36.219Z,-3.75
2022-12-12T06:40:03.353Z,-3.78
2022-12-12T06:42:29.943Z,-3.84
2022-12-12T06:44:56.688Z,-3.70
2022-12-12T06:47:23.282Z,-3.78
2022-12-12T06:49:49.859Z,-3.90
2022-12-12T06:52:16.525Z,-3.79
2022-12-12T06:54:43.061Z,-3.64
2022-12-12T06:57:09.659Z,-3.58
2022-12-12T06:59:36.235Z,-3.62
2022-12-12T07:02:02.914Z,-3.60
2022-12-12T07:04:29.639Z,-3.72
2022-12-12T07:06:56.255Z,-3.68
2022-12-12T07:09:22.850Z,-3.67
2022-12-12T07:11:49.417Z,-3.70
2022-12-12T07:14:16.073Z,-3.73
2022-12-12T07:16:42.661Z,-3.73
2022-12-12T07:19:09.841Z,-3.74
2022-12-12T07:21:36.497Z,-3.74
2022-12-12T07:24:03.151Z,-3.87
2022-12-12T07:26:29.741Z,-3.76
2022-12-12T07:28:56.395Z,-3.84
2022-12-12T07:31:26.109Z,-3.83
2022-12-12T07:33:54.330Z,-3.89
2022-12-12T07:36:21.362Z,-3.82
2022-12-12T07:38:48.197Z,-3.80
2022-12-12T07:41:17.027Z,-3.77
2022-12-12T07:43:46.146Z,-3.71
2022-12-12T07:46:23.094Z,-3.64
2022-12-12T07:48:50.397Z,-3.64
2022-12-12T07:51:17.678Z,-3.67
2022-12-12T07:53:44.376Z,-3.57
2022-12-12T07:56:13.814Z,-3.65
2022-12-12T07:58:40.436Z,-3.58
2022-12-12T08:01:19.035Z,-3.64
2022-12-12T08:03:46.878Z,-3.65
2022-12-12T08:06:14.359Z,-3.65
2022-12-12T08:08:40.944Z,-3.80
2022-12-12T08:11:09.158Z,-3.82
2022-12-12T08:13:37.622Z,-3.88
2022-12-12T08:16:05.332Z,-3.76
2022-12-12T08:18:32.273Z,-3.78
2022-12-12T08:20:58.864Z,-3.76
2022-12-12T08:23:25.411Z,-3.72
2022-12-12T08:25:52.092Z,-3.65
2022-12-12T08:28:18.698Z,-3.72
2022-12-12T08:30:49.261Z,-3.55
2022-12-12T08:33:15.837Z,-3.66
2022-12-12T08:35:42.379Z,-3.61
2022-12-12T08:38:08.987Z,-3.56
2022-12-12T08:40:36.901Z,-3.57
2022-12-12T08:43:03.488Z,-3.72
2022-12-12T08:45:30.105Z,-3.51
2022-12-12T08:47:56.705Z,-3.47
2022-12-12T08:50:23.291Z,-3.42
2022-12-12T08:52:49.839Z,-3.31
2022-12-12T08:55:16.505Z,-3.16
2022-12-12T08:57:43.279Z,-3.11
2022-12-12T09:00:10.839Z,-3.17
2022-12-12T09:02:37.653Z,-3.09
2022-12-12T09:05:04.687Z,-3.07
2022-12-12T09:07:31.267Z,-3.11
2022-12-12T09:09:57.865Z,-3.07
2022-12-12T09:12:24.523Z,-2.99
2022-12-12T09:14:51.095Z,-3.15
2022-12-12T09:17:17.747Z,-3.09
2022-12-12T09:19:45.768Z,-3.07
2022-12-12T09:22:12.669Z,-3.08
2022-12-12T09:24:39.248Z,-2.94
2022-12-12T09:27:05.875Z,-2.89
2022-12-12T09:29:32.521Z,-2.91
2022-12-12T09:31:59.167Z,-2.75
2022-12-12T09:34:25.801Z,-2.96
2022-12-12T09:36:52.392Z,-2.79
2022-12-12T09:39:19.658Z,-2.70
2022-12-12T09:41:46.257Z,-2.71
2022-12-12T09:44:18.614Z,-2.68
2022-12-12T09:46:55.556Z,-2.64
2022-12-12T09:49:50.896Z,-2.66
2022-12-12T09:52:29.288Z,-2.72
2022-12-12T09:54:59.513Z,-2.71
2022-12-12T09:57:33.801Z,-2.72
2022-12-12T10:00:27.279Z,-2.82
2022-12-12T10:03:23.133Z,-2.82
2022-12-12T10:06:36.613Z,-2.76
2022-12-12T10:09:47.826Z,-2.82
2022-12-12T10:12:18.680Z,-2.66
2022-12-12T10:14:52.921Z,-2.64
2022-12-12T10:17:52.974Z,-2.77
2022-12-12T10:20:29.650Z,-2.57
2022-12-12T10:23:13.953Z,-2.40
2022-12-12T10:26:07.075Z,-2.48
2022-12-12T10:28:35.212Z,-2.53
2022-12-12T10:31:33.593Z,-2.56
2022-12-12T10:34:44.839Z,-2.44
2022-12-12T10:37:50.441Z,-2.46
2022-12-12T10:40:57.332Z,-2.42
2022-12-12T10:43:30.209Z,-2.34
2022-12-12T10:46:28.423Z,-2.46
2022-12-12T10:48:55.307Z,-2.39
2022-12-12T10:51:25.920Z,-2.23
2022-12-12T10:53:52.563Z,-2.11
2022-12-12T10:56:29.275Z,-2.03
2022-12-12T10:59:01.357Z,-1.99
2022-12-12T11:04:22.851Z,-2.22
2022-12-12T11:06:52.159Z,-2.11
2022-12-12T11:09:25.015Z,-2.27
2022-12-12T11:12:12.116Z,-2.03
2022-12-12T11:14:41.415Z,-2.11
2022-12-12T11:17:29.363Z,-1.94
2022-12-12T11:19:59.250Z,-1.94
2022-12-12T11:22:27.440Z,-2.21
2022-12-12T11:24:54.477Z,-2.25
2022-12-12T11:27:25.523Z,-2.29
2022-12-12T11:29:55.664Z,-2.33
2022-12-12T11:32:46.345Z,-2.42
2022-12-12T11:35:47.035Z,-2.41
2022-12-12T11:38:20.845Z,-2.53
2022-12-12T11:41:05.815Z,-2.43
2022-12-12T11:43:37.117Z,-2.46
2022-12-12T11:46:28.625Z,-2.56
2022-12-12T11:48:59.279Z,-2.44
2022-12-12T11:51:43.316Z,-2.40
2022-12-12T11:54:33.461Z,-2.32
2022-12-12T11:57:40.767Z,-2.25
2022-12-12T12:00:22.305Z,-2.20
2022-12-12T12:03:13.463Z,-2.14
2022-12-12T12:06:17.615Z,-2.22
2022-12-12T12:09:16.359Z,-2.30
2022-12-12T12:12:03.521Z,-2.10
2022-12-12T12:14:54.828Z,-2.11
2022-12-12T12:17:55.332Z,-1.83
2022-12-12T12:20:45.883Z,-1.67
2022-12-12T12:23:50.097Z,-1.47
2022-12-12T12:26:53.076Z,-1.28
2022-12-12T12:29:50.598Z,-1.03
2022-12-12T12:32:44.333Z,-1.06
2022-12-12T12:35:30.513Z,-1.19
2022-12-12T12:38:38.411Z,-1.28
2022-12-12T12:41:55.075Z,-1.40
2022-12-12T12:44:49.517Z,-1.35
2022-12-12T12:47:47.793Z,-1.30
2022-12-12T12:50:31.472Z,-1.32
2022-12-12T12:53:05.359Z,-1.39
2022-12-12T12:55:55.206Z,-1.54
2022-12-12T12:58:26.527Z,-1.37
2022-12-12T13:01:02.662Z,-1.58
2022-12-12T13:03:46.616Z,-1.66
2022-12-12T13:06:20.941Z,-1.82
2022-12-12T13:09:13.686Z,-2.03
2022-12-12T13:11:45.565Z,-1.96
2022-12-12T13:14:48.111Z,-2.21
2022-12-12T13:17:21.538Z,-2.38
2022-12-12T13:19:53.412Z,-2.49
2022-12-12T13:23:03.345Z,-2.61
2022-12-12T13:25:49.798Z,-2.89
2022-12-12T13:28:21.591Z,-2.89
2022-12-12T13:31:01.310Z,-2.81
2022-12-12T13:33:40.773Z,-2.57
2022-12-12T13:36:29.051Z,-2.52
2022-12-12T13:39:01.311Z,-2.76
2022-12-12T13:41:47.943Z,-2.72
2022-12-12T13:44:36.802Z,-2.72
2022-12-12T13:47:10.714Z,-2.76
2022-12-12T13:50:01.442Z,-2.71
2022-12-12T13:52:38.479Z,-2.78
2022-12-12T13:55:25.341Z,-2.74
2022-12-12T13:58:31.431Z,-2.58
2022-12-12T14:01:27.710Z,-2.55
2022-12-12T14:03:54.656Z,-2.53
2022-12-12T14:06:21.332Z,-2.52
2022-12-12T14:08:50.587Z,-2.55
2022-12-12T14:11:27.776Z,-2.61
2022-12-12T14:14:07.792Z,-2.57
2022-12-12T14:16:35.569Z,-2.68
2022-12-12T14:19:08.743Z,-2.90
2022-12-12T14:21:47.531Z,-2.95
2022-12-12T14:24:47.845Z,-2.96
2022-12-12T14:27:15.130Z,-2.99
2022-12-12T14:29:43.822Z,-3.13
2022-12-12T14:32:41.651Z,-3.21
2022-12-12T14:35:24.956Z,-3.35
2022-12-12T14:38:09.552Z,-3.24
2022-12-12T14:40:48.427Z,-3.18
2022-12-12T14:43:22.954Z,-3.10
2022-12-12T14:45:58.082Z,-3.09
2022-12-12T14:48:35.347Z,-3.12
2022-12-12T14:51:12.197Z,-3.03
2022-12-12T14:53:48.967Z,-3.06
2022-12-12T14:56:27.387Z,-3.17
2022-12-12T14:58:53.848Z,-3.23
2022-12-12T15:01:33.608Z,-3.33
2022-12-12T15:04:04.656Z,-3.33
2022-12-12T15:06:39.692Z,-3.40
2022-12-12T15:09:29.646Z,-3.54
2022-12-12T15:12:16.347Z,-3.55
2022-12-12T15:15:22.011Z,-3.52
2022-12-12T15:17:51.280Z,-3.63
2022-12-12T15:20:21.564Z,-3.60
2022-12-12T15:23:00.519Z,-3.62
2022-12-12T15:25:37.107Z,-3.56
2022-12-12T15:28:04.145Z,-3.55
2022-12-12T15:30:43.261Z,-3.51
2022-12-12T15:33:22.211Z,-3.57
2022-12-12T15:35:58.049Z,-3.58
2022-12-12T15:38:29.176Z,-3.65
2022-12-12T15:40:58.989Z,-3.65
2022-12-12T15:43:30.783Z,-3.71
2022-12-12T15:46:00.145Z,-3.75
2022-12-12T15:48:27.184Z,-3.78
2022-12-12T15:51:04.029Z,-3.82
2022-12-12T15:53:35.349Z,-3.88
2022-12-12T15:56:14.218Z,-3.83
2022-12-12T15:59:07.680Z,-3.83
2022-12-12T16:01:34.677Z,-3.78
2022-12-12T16:04:08.327Z,-3.87
2022-12-12T16:06:43.899Z,-3.82
2022-12-12T16:09:25.668Z,-3.75
2022-12-12T16:11:53.646Z,-3.70
2022-12-12T16:14:28.091Z,-3.74
2022-12-12T16:17:06.492Z,-3.77
2022-12-12T16:20:04.899Z,-3.87
2022-12-12T16:22:51.727Z,-3.88
2022-12-12T16:25:18.209Z,-3.92
2022-12-12T16:27:46.129Z,-3.79
2022-12-12T16:30:14.930Z,-3.85
2022-12-12T16:32:42.389Z,-3.99
2022-12-12T16:35:17.872Z,-4.00
2022-12-12T16:37:45.533Z,-4.10
2022-12-12T16:40:17.215Z,-4.11
2022-12-12T16:42:49.655Z,-4.16
2022-12-12T16:45:16.118Z,-4.25
2022-12-12T16:47:42.714Z,-4.18
2022-12-12T16:50:12.843Z,-4.09
2022-12-12T16:52:39.621Z,-4.02
2022-12-12T16:55:19.385Z,-3.93
2022-12-12T16:57:46.267Z,-3.97
2022-12-12T17:00:14.111Z,-3.99
2022-12-12T17:02:41.000Z,-3.97
2022-12-12T17:05:17.292Z,-4.01
2022-12-12T17:07:43.852Z,-3.97
2022-12-12T17:10:11.239Z,-4.07
2022-12-12T17:12:38.701Z,-4.06
2022-12-12T17:15:06.057Z,-4.14
2022-12-12T17:17:32.718Z,-4.16
2022-12-12T17:19:59.406Z,-4.27
2022-12-12T17:22:26.026Z,-4.43
2022-12-12T17:24:52.580Z,-4.50
2022-12-12T17:27:19.192Z,-4.47
2022-12-12T17:29:45.793Z,-4.49
2022-12-12T17:32:12.384Z,-4.46
2022-12-12T17:34:39.110Z,-4.45
2022-12-12T17:37:05.681Z,-4.39
2022-12-12T17:39:32.264Z,-4.39
2022-12-12T17:41:58.817Z,-4.34
2022-12-12T17:44:25.778Z,-4.25
2022-12-12T17:46:52.873Z,-4.28
2022-12-12T17:49:19.417Z,-4.31
2022-12-12T17:51:45.992Z,-4.25
2022-12-12T17:54:12.579Z,-4.38
2022-12-12T17:56:39.439Z,-4.58
2022-12-12T17:59:09.161Z,-4.68
2022-12-12T18:01:36.136Z,-4.71
2022-12-12T18:04:03.378Z,-4.74
2022-12-12T18:06:33.188Z,-4.64
2022-12-12T18:09:00.864Z,-4.53
2022-12-12T18:11:31.450Z,-4.49
2022-12-12T18:14:00.639Z,-4.42
2022-12-12T18:16:29.444Z,-4.40
2022-12-12T18:18:56.650Z,-4.46
2022-12-12T18:24:12.633Z,-4.73
2022-12-12T18:26:39.279Z,-4.70
2022-12-12T18:29:07.499Z,-4.71
2022-12-12T18:31:35.359Z,-4.89
2022-12-12T18:34:02.079Z,-4.99
2022-12-12T18:36:30.596Z,-4.95
2022-12-12T18:38:59.680Z,-5.12
2022-12-12T18:41:28.174Z,-5.21
2022-12-12T18:43:55.740Z,-5.39
2022-12-12T18:46:24.670Z,-5.44
2022-12-12T18:48:51.351Z,-5.41
2022-12-12T18:51:20.846Z,-5.43
2022-12-12T18:53:47.634Z,-5.47
2022-12-12T18:56:18.518Z,-5.51
2022-12-12T18:58:45.269Z,-5.53
2022-12-12T19:01:15.347Z,-5.58
2022-12-12T19:03:44.004Z,-5.63
2022-12-12T19:06:13.709Z,-5.68
2022-12-12T19:08:40.955Z,-5.62
2022-12-12T19:11:08.835Z,-5.48
2022-12-12T19:13:35.472Z,-5.53
2022-12-12T19:16:10.888Z,-5.57
2022-12-12T19:18:38.346Z,-5.72
2022-12-12T19:21:07.428Z,-5.78
2022-12-12T19:23:35.010Z,-5.83
2022-12-12T19:26:13.799Z,-5.95
2022-12-12T19:28:40.462Z,-5.93
2022-12-12T19:31:09.030Z,-5.92
2022-12-12T19:33:35.787Z,-5.90
2022-12-12T19:36:09.332Z,-5.88
2022-12-12T19:38:35.911Z,-6.02
2022-12-12T19:41:07.086Z,-5.95
2022-12-12T19:43:34.040Z,-5.86
2022-12-12T19:46:05.155Z,-5.88
2022-12-12T19:48:32.290Z,-5.84
2022-12-12T19:51:07.201Z,-5.99
2022-12-12T19:53:36.536Z,-6.10
2022-12-12T19:56:03.676Z,-5.95
2022-12-12T19:58:33.854Z,-5.98
2022-12-12T20:01:13.947Z,-5.93
2022-12-12T20:03:40.816Z,-5.95
2022-12-12T20:06:10.273Z,-5.78
2022-12-12T20:08:38.164Z,-5.83
2022-12-12T20:11:07.110Z,-5.84
2022-12-12T20:13:33.838Z,-5.78
2022-12-12T20:16:15.732Z,-5.83
2022-12-12T20:18:42.654Z,-5.99
2022-12-12T20:21:20.452Z,-6.09
2022-12-12T20:23:57.040Z,-6.18
2022-12-12T20:26:29.607Z,-6.32
2022-12-12T20:28:59.505Z,-6.29
2022-12-12T20:31:31.275Z,-6.40
2022-12-12T20:33:59.110Z,-6.45
2022-12-12T20:36:28.442Z,-6.39
2022-12-12T20:38:56.900Z,-6.38
2022-12-12T20:41:26.520Z,-6.32
2022-12-12T20:43:55.132Z,-6.34
2022-12-12T20:46:33.873Z,-6.41
2022-12-12T20:49:02.392Z,-6.47
2022-12-12T20:56:48.151Z,-6.45
2022-12-12T20:59:14.791Z,-6.62
2022-12-12T21:01:41.477Z,-6.68
2022-12-12T21:04:09.469Z,-6.69
2022-12-12T21:06:38.940Z,-6.83
2022-12-12T21:09:10.208Z,-6.64
2022-12-12T21:11:37.850Z,-6.71
2022-12-12T21:14:05.460Z,-6.70
2022-12-12T21:16:35.115Z,-6.63
2022-12-12T21:19:12.393Z,-6.66
2022-12-12T21:21:41.904Z,-6.60
2022-12-12T21:24:09.866Z,-6.66
2022-12-12T21:26:36.431Z,-6.89
2022-12-12T21:29:04.827Z,-6.80
2022-12-12T21:31:36.366Z,-6.90
2022-12-12T21:34:04.116Z,-6.98
2022-12-12T21:36:31.457Z,-7.03
2022-12-12T21:38:59.830Z,-7.08
2022-12-12T21:41:26.931Z,-7.09
2022-12-12T21:43:55.553Z,-6.95
2022-12-12T21:46:25.386Z,-6.91
2022-12-12T21:49:11.325Z,-6.81
2022-12-12T21:51:39.059Z,-6.82
2022-12-12T21:54:07.538Z,-6.84
2022-12-12T21:56:34.353Z,-6.87
2022-12-12T21:59:00.889Z,-6.95
2022-12-12T22:01:27.799Z,-6.96
2022-12-12T22:03:55.584Z,-7.20
2022-12-12T22:06:27.017Z,-7.11
2022-12-12T22:08:57.583Z,-7.12
2022-12-12T22:11:40.447Z,-7.13
2022-12-12T22:14:12.714Z,-7.11
2022-12-12T22:16:39.311Z,-7.16
2022-12-12T22:19:09.818Z,-7.32
2022-12-12T22:21:36.709Z,-7.23
2022-12-12T22:24:03.766Z,-7.26
2022-12-12T22:26:33.255Z,-7.27
2022-12-12T22:29:02.491Z,-7.21
2022-12-12T22:31:33.009Z,-7.09
2022-12-12T22:34:02.163Z,-6.96
2022-12-12T22:36:31.396Z,-6.99
2022-12-12T22:38:58.831Z,-7.27
2022-12-12T22:41:26.813Z,-7.26
2022-12-12T22:43:58.164Z,-7.52
2022-12-12T22:46:26.246Z,-7.54
2022-12-12T22:48:54.780Z,-7.45
2022-12-12T22:51:25.124Z,-7.39
2022-12-12T22:53:52.451Z,-7.35
2022-12-12T22:56:18.968Z,-7.31
2022-12-12T22:58:45.710Z,-7.44
2022-12-12T23:01:22.316Z,-7.41
2022-12-12T23:03:49.284Z,-7.61
2022-12-12T23:06:18.751Z,-7.61
2022-12-12T23:08:53.428Z,-7.72
2022-12-12T23:11:21.756Z,-7.69
2022-12-12T23:13:48.732Z,-7.66
2022-12-12T23:16:18.834Z,-7.88
2022-12-12T23:18:46.788Z,-8.04
2022-12-12T23:21:17.268Z,-8.14
2022-12-12T23:23:44.644Z,-7.97
2022-12-12T23:26:17.995Z,-8.11
2022-12-12T23:28:45.671Z,-8.12
2022-12-12T23:31:18.755Z,-8.22
2022-12-12T23:33:46.363Z,-8.17
2022-12-12T23:36:14.587Z,-8.11
2022-12-12T23:38:41.891Z,-8.15
2022-12-12T23:41:12.255Z,-8.03
2022-12-12T23:43:39.266Z,-8.28
2022-12-12T23:46:09.060Z,-8.35
2022-12-12T23:48:35.650Z,-8.32
2022-12-12T23:51:02.465Z,-8.23
2022-12-12T23:53:31.752Z,-8.39
2022-12-12T23:56:04.056Z,-8.35
2022-12-12T23:58:30.585Z,-8.20
